Time;durP1;ratioP1;P1;durP2;ratioP2;P2;SDS_P1;SDS_P2;PMS_P1;PMS_P2;Temp;Humidity;BMP_temperature;BMP_pressure;BME280_temperature;BME280_humidity;BME280_pressure;Samples;Min_cycle;Max_cycle;Signal;HPM_P1;HPM_P2
2021/10/22 00:00:16;;;;;;;2.72;1.58;;;8.00;95.00;;;;;;4992451;28;20043;-68
2021/10/22 00:02:42;;;;;;;2.65;1.30;;;7.90;95.00;;;;;;4992406;28;20056;-68
2021/10/22 00:05:08;;;;;;;1.15;1.10;;;7.80;95.00;;;;;;4992551;28;20033;-67
2021/10/22 00:07:34;;;;;;;2.63;1.30;;;7.80;95.10;;;;;;4993035;28;20022;-67
2021/10/22 00:10:00;;;;;;;3.17;1.40;;;7.80;95.10;;;;;;4992417;28;20033;-67
2021/10/22 00:12:25;;;;;;;1.30;1.20;;;7.80;95.00;;;;;;4993087;28;20080;-67
2021/10/22 00:14:51;;;;;;;5.43;1.40;;;7.70;95.10;;;;;;4991825;28;20030;-67
2021/10/22 00:17:16;;;;;;;7.38;1.77;;;7.70;95.10;;;;;;4992783;28;20534;-68
2021/10/22 00:19:42;;;;;;;2.15;1.40;;;7.70;95.20;;;;;;4991486;28;20033;-67
2021/10/22 00:22:08;;;;;;;7.25;1.70;;;7.70;95.20;;;;;;4992784;28;20026;-67
2021/10/22 00:24:33;;;;;;;3.28;1.80;;;7.70;95.20;;;;;;4988002;28;20057;-67
2021/10/22 00:26:59;;;;;;;2.67;1.60;;;7.70;95.20;;;;;;5006013;28;20029;-68
2021/10/22 00:29:24;;;;;;;3.78;1.90;;;7.70;95.20;;;;;;4992892;28;20078;-69
2021/10/22 00:31:50;;;;;;;6.40;1.85;;;7.60;95.20;;;;;;4990582;28;20030;-68
2021/10/22 00:34:16;;;;;;;4.05;2.00;;;7.60;95.20;;;;;;4991873;28;20069;-67
2021/10/22 00:36:42;;;;;;;4.32;2.03;;;7.60;95.30;;;;;;4992758;28;20498;-66
2021/10/22 00:39:08;;;;;;;7.95;2.40;;;7.60;95.30;;;;;;4991433;28;20018;-68
2021/10/22 00:41:34;;;;;;;3.65;2.13;;;7.50;95.30;;;;;;4992641;28;20811;-67
2021/10/22 00:44:00;;;;;;;9.27;2.38;;;7.60;95.40;;;;;;4991227;28;20433;-67
2021/10/22 00:46:29;;;;;;;5.63;2.33;;;7.50;95.30;;;;;;4991732;28;20023;-66
2021/10/22 00:48:55;;;;;;;3.60;2.20;;;7.50;95.40;;;;;;4992235;28;20046;-68
2021/10/22 00:51:22;;;;;;;5.80;2.40;;;7.50;95.40;;;;;;4991888;28;20053;-67
2021/10/22 00:53:47;;;;;;;5.72;2.30;;;7.50;95.40;;;;;;4991376;28;20398;-68
2021/10/22 00:56:13;;;;;;;6.45;2.67;;;7.50;95.50;;;;;;4991835;28;20039;-68
2021/10/22 00:58:41;;;;;;;7.13;2.60;;;7.50;95.40;;;;;;4990862;28;20054;-68
2021/10/22 01:01:07;;;;;;;6.75;2.88;;;7.50;95.40;;;;;;4991569;28;20078;-66
2021/10/22 01:03:33;;;;;;;3.97;2.30;;;7.50;95.40;;;;;;4991326;28;20026;-67
2021/10/22 01:06:00;;;;;;;5.45;2.90;;;7.50;95.50;;;;;;4991377;28;20026;-66
2021/10/22 01:08:29;;;;;;;9.32;3.13;;;7.50;95.50;;;;;;4991377;28;20045;-68
2021/10/22 01:10:55;;;;;;;5.88;2.40;;;7.50;95.50;;;;;;4990841;28;20105;-67
2021/10/22 01:13:21;;;;;;;5.63;2.83;;;7.50;95.50;;;;;;4991309;28;20483;-67
2021/10/22 01:15:47;;;;;;;5.35;2.97;;;7.50;95.50;;;;;;4991173;28;20498;-67
2021/10/22 01:18:12;;;;;;;4.88;3.13;;;7.40;95.50;;;;;;4991383;28;20379;-67
2021/10/22 01:20:39;;;;;;;5.95;2.83;;;7.40;95.50;;;;;;4990950;28;20038;-67
2021/10/22 01:23:05;;;;;;;7.28;3.10;;;7.40;95.60;;;;;;4984949;28;20456;-66
2021/10/22 01:25:32;;;;;;;7.78;2.97;;;7.40;95.60;;;;;;4989017;28;20438;-67
2021/10/22 01:27:57;;;;;;;7.15;2.97;;;7.40;95.60;;;;;;4989866;28;20463;-67
2021/10/22 01:30:26;;;;;;;8.52;3.20;;;7.40;95.60;;;;;;4978157;28;20045;-66
2021/10/22 01:33:17;;;;;;;7.53;3.03;;;7.40;95.60;;;;;;4989004;28;20042;-67
2021/10/22 01:35:42;;;;;;;9.27;3.28;;;7.40;95.50;;;;;;4988872;28;20026;-67
2021/10/22 01:38:08;;;;;;;10.48;3.45;;;7.40;95.40;;;;;;4990431;28;20033;-67
2021/10/22 01:40:34;;;;;;;7.35;3.60;;;7.40;95.50;;;;;;4989232;28;20553;-66
2021/10/22 01:42:59;;;;;;;7.35;3.05;;;7.30;95.50;;;;;;4989619;28;20030;-66
2021/10/22 01:45:25;;;;;;;10.50;3.17;;;7.30;95.50;;;;;;4990334;28;20088;-67
2021/10/22 01:47:51;;;;;;;7.57;3.22;;;7.20;95.50;;;;;;4991075;28;20030;-67
2021/10/22 01:50:16;;;;;;;6.15;3.30;;;7.20;95.50;;;;;;4990494;28;20038;-67
2021/10/22 01:52:43;;;;;;;9.38;3.83;;;7.20;95.40;;;;;;4990046;28;20026;-66
2021/10/22 01:55:09;;;;;;;10.95;3.67;;;7.10;95.50;;;;;;4988906;28;20045;-67
2021/10/22 01:57:35;;;;;;;8.07;3.38;;;7.00;95.50;;;;;;4991035;28;20057;-66
2021/10/22 02:00:00;;;;;;;7.70;3.47;;;7.10;95.70;;;;;;4985249;28;20035;-66
2021/10/22 02:02:26;;;;;;;5.18;3.20;;;7.00;95.50;;;;;;4978465;28;20034;-67
2021/10/22 02:04:51;;;;;;;8.07;3.55;;;7.00;95.60;;;;;;4986368;28;20474;-67
2021/10/22 02:07:17;;;;;;;12.82;3.42;;;7.00;95.70;;;;;;4990998;28;20057;-67
2021/10/22 02:09:43;;;;;;;13.38;4.38;;;7.00;95.60;;;;;;4987516;28;20045;-66
2021/10/22 02:12:08;;;;;;;13.32;3.58;;;7.00;95.70;;;;;;4989249;28;20478;-66
2021/10/22 02:14:34;;;;;;;8.80;3.70;;;7.00;95.70;;;;;;4986356;28;20057;-67
2021/10/22 02:17:00;;;;;;;11.85;3.80;;;7.00;95.70;;;;;;4988754;28;20030;-66
2021/10/22 02:19:26;;;;;;;7.32;3.38;;;7.00;95.70;;;;;;4989576;28;20034;-67
2021/10/22 02:21:52;;;;;;;15.65;4.18;;;6.90;95.70;;;;;;4990620;28;20019;-67
2021/10/22 02:24:17;;;;;;;9.75;4.03;;;6.90;95.70;;;;;;4992465;28;20113;-66
2021/10/22 02:26:43;;;;;;;8.00;3.60;;;6.90;95.80;;;;;;4973521;28;20359;-67
2021/10/22 02:29:08;;;;;;;9.48;3.95;;;6.90;95.80;;;;;;5020674;23;20153;-69
2021/10/22 02:31:34;;;;;;;10.65;3.92;;;6.90;95.80;;;;;;4998031;28;20125;-68
2021/10/22 02:33:59;;;;;;;9.10;3.97;;;6.90;95.80;;;;;;5015369;28;20025;-68
2021/10/22 02:36:25;;;;;;;7.55;3.97;;;6.90;95.80;;;;;;4996362;28;20095;-69
2021/10/22 02:38:51;;;;;;;8.63;3.45;;;6.90;95.80;;;;;;5013195;28;20041;-68
2021/10/22 02:41:16;;;;;;;8.48;3.70;;;6.90;95.80;;;;;;5014097;28;20030;-68
2021/10/22 02:43:42;;;;;;;6.05;3.58;;;6.90;95.80;;;;;;4994799;28;20080;-69
2021/10/22 02:46:08;;;;;;;9.27;3.97;;;6.90;95.90;;;;;;5014076;28;20052;-69
2021/10/22 02:48:33;;;;;;;7.47;3.60;;;6.90;95.80;;;;;;5013150;28;20026;-69
2021/10/22 02:50:59;;;;;;;7.85;3.67;;;6.90;95.80;;;;;;5013711;28;20026;-70
2021/10/22 02:53:25;;;;;;;6.57;3.63;;;6.90;95.90;;;;;;5012036;28;20103;-70
2021/10/22 02:55:51;;;;;;;9.18;3.88;;;6.80;95.90;;;;;;4996070;28;20033;-69
2021/10/22 02:58:17;;;;;;;6.20;3.38;;;6.90;95.90;;;;;;5006106;28;20426;-68
2021/10/22 03:00:42;;;;;;;9.65;3.80;;;6.80;95.80;;;;;;5012541;28;20108;-70
2021/10/22 03:03:08;;;;;;;10.88;3.50;;;6.80;95.80;;;;;;4994911;28;20358;-69
2021/10/22 03:05:33;;;;;;;6.78;3.55;;;6.80;95.80;;;;;;5013159;28;20014;-69
2021/10/22 03:07:59;;;;;;;7.85;3.60;;;6.80;95.80;;;;;;5013290;28;20014;-69
2021/10/22 03:10:26;;;;;;;5.85;3.45;;;6.80;95.80;;;;;;5013150;28;20030;-69
2021/10/22 03:12:52;;;;;;;6.43;3.63;;;6.70;95.80;;;;;;5012243;28;20029;-70
2021/10/22 03:15:18;;;;;;;8.73;3.55;;;6.70;95.80;;;;;;5012613;28;20033;-68
2021/10/22 03:17:43;;;;;;;9.85;3.55;;;6.70;95.80;;;;;;4995661;28;20030;-68
2021/10/22 03:20:10;;;;;;;9.90;3.72;;;6.70;95.90;;;;;;4994813;28;20026;-69
2021/10/22 03:22:37;;;;;;;8.82;3.30;;;6.70;95.80;;;;;;5011013;28;20022;-70
2021/10/22 03:25:04;;;;;;;9.35;3.90;;;6.70;95.90;;;;;;5006695;28;20022;-70
2021/10/22 03:27:30;;;;;;;9.90;3.60;;;6.70;95.90;;;;;;4994086;28;20058;-69
2021/10/22 03:29:56;;;;;;;7.60;3.75;;;6.60;95.90;;;;;;5007649;28;20034;-68
2021/10/22 03:32:22;;;;;;;8.55;3.80;;;6.60;95.80;;;;;;5010309;28;20034;-68
2021/10/22 03:34:47;;;;;;;7.10;3.58;;;6.60;95.90;;;;;;5012243;28;20037;-69
2021/10/22 03:37:13;;;;;;;8.07;3.60;;;6.60;95.90;;;;;;5012508;28;20021;-69
2021/10/22 03:39:40;;;;;;;9.63;3.45;;;6.60;95.90;;;;;;5012705;28;20026;-68
2021/10/22 03:42:05;;;;;;;11.05;3.90;;;6.60;95.90;;;;;;5012608;28;20362;-69
2021/10/22 03:44:31;;;;;;;10.50;3.97;;;6.60;95.90;;;;;;5011740;28;20026;-69
2021/10/22 03:46:58;;;;;;;12.25;4.05;;;6.50;96.10;;;;;;5012491;28;20041;-69
2021/10/22 03:49:24;;;;;;;9.23;4.47;;;6.50;95.90;;;;;;4994598;28;20030;-69
2021/10/22 03:51:49;;;;;;;9.70;4.03;;;6.50;95.80;;;;;;5012191;28;20037;-69
2021/10/22 03:54:15;;;;;;;10.55;4.63;;;6.40;95.90;;;;;;5010969;28;20044;-69
2021/10/22 03:56:41;;;;;;;9.20;4.60;;;6.40;95.90;;;;;;5012569;28;20029;-69
2021/10/22 03:59:06;;;;;;;10.73;4.70;;;6.40;95.90;;;;;;5011801;28;20348;-69
2021/10/22 04:01:32;;;;;;;14.82;4.57;;;6.40;95.90;;;;;;5006533;28;20037;-68
2021/10/22 04:03:58;;;;;;;15.07;4.57;;;6.40;95.90;;;;;;4993572;28;20335;-68
2021/10/22 04:06:23;;;;;;;11.07;4.68;;;6.40;95.90;;;;;;5011512;28;20018;-69
2021/10/22 04:08:49;;;;;;;7.55;4.25;;;6.30;95.80;;;;;;4994666;28;20056;-69
2021/10/22 04:11:15;;;;;;;9.75;4.20;;;6.30;95.90;;;;;;4994371;28;20033;-69
2021/10/22 04:13:40;;;;;;;8.63;4.03;;;6.30;95.90;;;;;;5011057;28;20200;-69
2021/10/22 04:16:06;;;;;;;8.20;4.07;;;6.30;96.00;;;;;;5011965;28;20026;-69
2021/10/22 04:18:31;;;;;;;12.07;4.47;;;6.30;95.90;;;;;;5011718;28;20114;-69
2021/10/22 04:20:57;;;;;;;8.13;4.28;;;6.30;95.90;;;;;;5011406;28;20022;-69
2021/10/22 04:23:23;;;;;;;7.97;4.40;;;6.30;95.90;;;;;;5009771;28;20033;-69
2021/10/22 04:25:49;;;;;;;14.93;4.82;;;6.20;95.90;;;;;;4999899;28;20037;-69
2021/10/22 04:28:16;;;;;;;13.18;4.30;;;6.20;95.80;;;;;;5011645;28;20030;-69
2021/10/22 04:30:41;;;;;;;8.13;3.78;;;6.20;95.90;;;;;;4997972;28;20062;-68
2021/10/22 04:33:07;;;;;;;11.65;4.00;;;6.20;95.90;;;;;;5013941;28;20045;-68
2021/10/22 04:35:34;;;;;;;12.52;3.95;;;6.10;95.90;;;;;;5012116;28;20033;-69
2021/10/22 04:38:12;;;;;;;11.15;4.30;;;6.10;96.00;;;;;;5011989;28;20026;-69
2021/10/22 04:40:41;;;;;;;9.25;3.80;;;6.10;95.90;;;;;;4994155;28;20753;-69
2021/10/22 04:43:13;;;;;;;8.20;3.60;;;6.00;95.90;;;;;;5010708;28;20022;-69
2021/10/22 04:45:40;;;;;;;8.00;3.80;;;6.00;96.00;;;;;;4990670;28;20025;-70
2021/10/22 04:48:09;;;;;;;12.55;3.80;;;6.00;95.90;;;;;;5011566;28;20040;-69
2021/10/22 04:50:40;;;;;;;5.35;3.00;;;5.90;95.90;;;;;;5012122;28;20026;-69
2021/10/22 04:53:07;;;;;;;9.95;3.45;;;5.90;96.10;;;;;;4992833;28;20120;-69
2021/10/22 04:55:33;;;;;;;5.45;3.38;;;6.00;96.20;;;;;;5011859;28;20100;-69
2021/10/22 04:57:59;;;;;;;10.70;3.65;;;5.90;96.10;;;;;;5006429;28;20081;-69
2021/10/22 05:00:25;;;;;;;14.35;3.97;;;5.90;96.10;;;;;;5001816;28;20038;-69
2021/10/22 05:02:50;;;;;;;10.45;3.30;;;5.90;96.00;;;;;;5002706;28;20505;-69
2021/10/22 05:05:16;;;;;;;8.85;3.58;;;5.80;96.00;;;;;;5010993;28;20018;-68
2021/10/22 05:07:42;;;;;;;10.00;3.63;;;5.80;96.00;;;;;;5011684;28;20398;-69
2021/10/22 05:10:08;;;;;;;13.00;3.65;;;5.80;96.00;;;;;;4993616;28;20030;-69
2021/10/22 05:12:34;;;;;;;8.68;3.53;;;5.70;96.00;;;;;;5011075;28;20033;-68
2021/10/22 05:15:00;;;;;;;12.20;4.15;;;5.70;96.10;;;;;;5011449;28;20434;-68
2021/10/22 05:17:26;;;;;;;14.40;4.43;;;5.70;96.00;;;;;;5011174;28;20034;-69
2021/10/22 05:19:53;;;;;;;10.52;4.30;;;5.60;96.30;;;;;;5002780;28;20030;-68
2021/10/22 05:22:19;;;;;;;12.57;5.13;;;5.60;96.10;;;;;;5007547;28;20037;-69
2021/10/22 05:24:45;;;;;;;10.82;4.55;;;5.60;96.10;;;;;;4981137;28;20129;-69
2021/10/22 05:27:11;;;;;;;11.13;4.60;;;5.60;96.20;;;;;;5008386;28;20441;-68
2021/10/22 05:29:36;;;;;;;9.52;4.45;;;5.60;96.20;;;;;;5000960;28;20175;-69
2021/10/22 05:32:02;;;;;;;10.05;4.65;;;5.60;96.30;;;;;;5009094;28;20474;-68
2021/10/22 05:34:28;;;;;;;11.38;5.03;;;5.70;96.30;;;;;;5009318;28;20121;-66
2021/10/22 05:36:54;;;;;;;12.27;5.32;;;5.70;96.30;;;;;;5011299;28;20421;-66
2021/10/22 05:39:21;;;;;;;16.35;5.75;;;5.70;96.40;;;;;;4993157;28;20033;-69
2021/10/22 05:41:47;;;;;;;14.35;5.88;;;5.70;96.30;;;;;;5009704;28;20474;-69
2021/10/22 05:44:14;;;;;;;16.50;5.38;;;5.70;96.40;;;;;;5004365;28;20030;-68
2021/10/22 05:46:40;;;;;;;13.52;5.50;;;5.70;96.50;;;;;;5010281;28;20030;-69
2021/10/22 05:49:06;;;;;;;11.43;5.32;;;5.70;96.50;;;;;;4992225;28;20034;-70
2021/10/22 05:51:31;;;;;;;11.65;5.18;;;5.70;96.40;;;;;;5010260;28;20041;-68
2021/10/22 05:53:57;;;;;;;13.27;5.38;;;5.80;96.40;;;;;;5009237;28;20026;-68
2021/10/22 05:56:23;;;;;;;13.93;5.65;;;5.70;96.30;;;;;;5010692;28;20030;-68
2021/10/22 05:58:48;;;;;;;13.43;5.00;;;5.70;96.30;;;;;;5005256;28;20031;-69
2021/10/22 06:01:14;;;;;;;13.93;5.38;;;5.70;96.30;;;;;;5006760;28;20041;-68
2021/10/22 06:03:39;;;;;;;12.70;5.18;;;5.60;96.30;;;;;;5009032;28;20025;-69
2021/10/22 06:06:06;;;;;;;12.07;5.68;;;5.60;96.30;;;;;;5011049;28;20033;-70
2021/10/22 06:08:32;;;;;;;11.25;5.10;;;5.60;96.40;;;;;;5010483;28;20089;-68
2021/10/22 06:10:58;;;;;;;11.02;5.43;;;5.60;96.40;;;;;;5010282;28;20030;-69
2021/10/22 06:13:23;;;;;;;14.77;5.32;;;5.60;96.40;;;;;;5009955;28;20470;-69
2021/10/22 06:15:49;;;;;;;10.93;5.43;;;5.60;96.30;;;;;;5009367;28;20037;-69
2021/10/22 06:18:17;;;;;;;11.80;5.55;;;5.50;96.20;;;;;;5011127;28;20022;-69
2021/10/22 06:25:42;;;;;;;8.93;4.88;;;5.50;96.40;;;;;;5006681;28;20022;-69
2021/10/22 06:28:10;;;;;;;11.73;5.43;;;5.60;96.40;;;;;;5001981;28;20026;-69
2021/10/22 06:30:37;;;;;;;11.30;5.20;;;5.80;96.30;;;;;;4983101;28;20030;-69
2021/10/22 06:33:02;;;;;;;8.43;4.05;;;6.00;96.30;;;;;;4990507;28;20080;-69
2021/10/22 06:35:28;;;;;;;6.68;3.65;;;6.10;96.30;;;;;;4992207;28;20042;-69
2021/10/22 06:37:55;;;;;;;6.10;3.28;;;6.20;96.40;;;;;;4992345;28;20026;-69
2021/10/22 06:40:21;;;;;;;10.50;4.47;;;6.30;96.40;;;;;;5010790;28;20026;-69
2021/10/22 06:42:47;;;;;;;6.97;4.93;;;6.60;96.10;;;;;;5009257;28;20060;-68
2021/10/22 06:45:13;;;;;;;5.78;4.10;;;6.90;95.80;;;;;;5005143;28;20088;-69
2021/10/22 06:47:39;;;;;;;8.73;4.40;;;7.10;95.70;;;;;;5006537;28;20037;-68
2021/10/22 06:50:06;;;;;;;9.20;4.18;;;7.30;95.60;;;;;;5012107;28;20026;-68
2021/10/22 06:52:31;;;;;;;8.63;3.90;;;7.40;95.50;;;;;;5019474;28;20033;-69
2021/10/22 06:54:57;;;;;;;9.70;4.18;;;7.40;95.50;;;;;;4998845;28;20026;-69
2021/10/22 06:57:23;;;;;;;6.82;4.13;;;7.60;95.20;;;;;;4983038;28;20030;-68
2021/10/22 06:59:48;;;;;;;10.48;3.65;;;7.90;95.10;;;;;;5002211;28;20125;-67
2021/10/22 07:02:14;;;;;;;7.13;3.28;;;8.10;94.70;;;;;;4991586;28;20026;-69
2021/10/22 07:04:48;;;;;;;4.75;3.00;;;8.30;94.40;;;;;;5008500;28;20045;-70
2021/10/22 07:07:17;;;;;;;5.43;3.15;;;8.40;94.20;;;;;;4995779;28;20061;-69
2021/10/22 07:09:46;;;;;;;8.10;3.10;;;8.50;94.30;;;;;;4993595;28;20052;-72
2021/10/22 07:12:13;;;;;;;7.30;3.33;;;8.60;93.90;;;;;;5013558;28;20038;-68
2021/10/22 07:14:48;;;;;;;10.07;2.92;;;8.80;93.60;;;;;;5012867;28;20554;-69
2021/10/22 07:17:13;;;;;;;7.97;3.20;;;8.90;93.40;;;;;;5012807;28;20041;-68
2021/10/22 07:19:39;;;;;;;8.15;3.67;;;9.10;93.40;;;;;;5013323;28;20366;-69
2021/10/22 07:22:13;;;;;;;9.88;3.53;;;9.20;93.20;;;;;;5012608;28;20022;-68
2021/10/22 07:24:39;;;;;;;7.88;3.42;;;9.30;93.20;;;;;;5006948;28;20034;-69
2021/10/22 07:27:05;;;;;;;5.90;2.53;;;9.30;93.20;;;;;;5010097;28;20033;-69
2021/10/22 07:29:31;;;;;;;6.95;2.60;;;9.40;93.20;;;;;;5009734;28;20021;-67
2021/10/22 07:31:57;;;;;;;5.80;2.40;;;9.60;93.10;;;;;;5009272;28;20018;-68
2021/10/22 07:34:23;;;;;;;5.65;2.22;;;9.90;93.40;;;;;;5010258;28;20069;-68
2021/10/22 07:36:51;;;;;;;4.60;2.30;;;10.10;93.50;;;;;;5013257;28;20052;-71
2021/10/22 07:39:19;;;;;;;2.92;2.08;;;10.20;93.30;;;;;;4995235;28;20092;-68
2021/10/22 07:41:45;;;;;;;4.13;2.30;;;10.30;93.60;;;;;;5011130;28;20029;-68
2021/10/22 07:44:12;;;;;;;6.47;2.55;;;10.30;93.50;;;;;;4992224;28;20022;-68
2021/10/22 07:46:42;;;;;;;8.02;2.72;;;10.10;93.70;;;;;;5013565;28;20478;-70
2021/10/22 07:49:07;;;;;;;5.35;2.10;;;10.00;94.10;;;;;;4994180;28;20033;-69
2021/10/22 07:51:33;;;;;;;8.55;3.05;;;10.00;94.20;;;;;;5010999;28;20030;-69
2021/10/22 07:53:59;;;;;;;5.00;1.80;;;10.00;94.40;;;;;;5012227;28;20034;-68
2021/10/22 07:56:24;;;;;;;6.38;2.08;;;10.00;94.60;;;;;;5014321;28;20117;-68
2021/10/22 07:58:51;;;;;;;5.65;2.03;;;10.00;94.10;;;;;;5004759;28;20382;-68
2021/10/22 08:01:19;;;;;;;8.40;1.60;;;9.90;94.10;;;;;;5015300;28;20022;-68
2021/10/22 08:03:45;;;;;;;6.82;1.70;;;9.80;94.20;;;;;;5009341;28;20022;-68
2021/10/22 08:06:13;;;;;;;10.00;1.83;;;9.80;94.20;;;;;;5013141;28;20022;-68
2021/10/22 08:08:41;;;;;;;10.90;2.35;;;9.60;93.80;;;;;;5011119;28;20033;-68
2021/10/22 08:11:07;;;;;;;6.35;1.33;;;9.50;93.70;;;;;;5012636;28;20029;-68
2021/10/22 08:13:32;;;;;;;8.02;1.88;;;9.40;93.90;;;;;;5005057;28;20488;-68
2021/10/22 08:15:58;;;;;;;7.60;1.75;;;9.30;93.90;;;;;;5002255;28;20034;-69
2021/10/22 08:18:24;;;;;;;5.05;1.58;;;9.30;94.20;;;;;;5009070;28;20068;-69
2021/10/22 08:20:55;;;;;;;5.43;1.48;;;9.30;93.70;;;;;;5005837;28;20029;-69
2021/10/22 08:23:21;;;;;;;9.87;3.00;;;9.20;93.90;;;;;;5009621;28;20029;-69
2021/10/22 08:25:48;;;;;;;8.48;1.50;;;9.20;93.90;;;;;;4999811;28;20350;-68
2021/10/22 08:28:14;;;;;;;7.03;1.45;;;9.20;94.10;;;;;;5011334;28;20034;-69
2021/10/22 08:30:39;;;;;;;9.05;1.75;;;9.20;94.30;;;;;;5003906;28;20100;-68
2021/10/22 08:33:06;;;;;;;9.15;2.00;;;9.30;94.00;;;;;;5031114;28;20036;-69
2021/10/22 08:35:32;;;;;;;6.28;1.80;;;9.30;93.70;;;;;;5015676;28;20053;-69
2021/10/22 08:37:58;;;;;;;9.45;1.50;;;9.20;93.60;;;;;;5017957;28;20062;-69
2021/10/22 08:40:25;;;;;;;10.68;1.80;;;9.20;93.40;;;;;;4996577;28;20456;-69
2021/10/22 08:42:51;;;;;;;7.95;1.65;;;9.10;93.30;;;;;;5010718;28;20010;-68
2021/10/22 08:45:18;;;;;;;7.18;1.50;;;9.10;93.30;;;;;;5010906;28;20045;-68
2021/10/22 08:47:45;;;;;;;6.00;1.15;;;9.00;93.20;;;;;;5006515;28;20014;-69
2021/10/22 08:50:17;;;;;;;5.65;1.48;;;8.90;93.40;;;;;;5011319;28;20052;-69
2021/10/22 08:52:44;;;;;;;10.63;1.75;;;9.00;93.10;;;;;;5004187;28;20037;-69
2021/10/22 08:55:12;;;;;;;7.28;1.38;;;8.90;93.30;;;;;;5006230;28;20030;-69
2021/10/22 08:57:42;;;;;;;8.20;1.40;;;8.90;93.10;;;;;;5003752;28;20053;-68
2021/10/22 09:00:26;;;;;;;8.05;1.48;;;8.90;93.30;;;;;;5004631;28;20112;-69
2021/10/22 09:02:52;;;;;;;6.63;1.65;;;9.00;93.40;;;;;;5008814;28;20046;-69
2021/10/22 09:05:24;;;;;;;10.25;1.40;;;9.00;93.10;;;;;;5011107;28;20060;-68
2021/10/22 09:07:52;;;;;;;10.77;1.45;;;9.00;93.10;;;;;;4999993;28;20026;-69
2021/10/22 09:10:23;;;;;;;9.95;1.63;;;8.90;93.00;;;;;;5018369;28;20040;-69
2021/10/22 09:12:49;;;;;;;13.55;1.98;;;9.00;92.90;;;;;;5000270;28;20063;-69
2021/10/22 09:15:19;;;;;;;10.63;1.88;;;8.90;92.90;;;;;;5018143;28;20025;-68
2021/10/22 09:17:45;;;;;;;9.00;2.05;;;8.90;93.00;;;;;;5020115;28;20112;-68
2021/10/22 09:20:12;;;;;;;8.27;1.65;;;9.00;93.00;;;;;;5017435;28;20467;-68
2021/10/22 09:22:40;;;;;;;9.25;1.73;;;9.00;93.10;;;;;;5003148;28;20038;-68
2021/10/22 09:25:12;;;;;;;11.27;2.10;;;9.10;92.90;;;;;;5026626;28;20033;-68
2021/10/22 09:27:43;;;;;;;14.82;2.03;;;9.00;92.40;;;;;;4986624;28;20482;-69
2021/10/22 09:30:31;;;;;;;6.93;1.48;;;9.00;92.60;;;;;;5002282;28;20427;-68
2021/10/22 09:33:00;;;;;;;6.20;1.77;;;9.00;92.60;;;;;;4997336;28;20024;-69
2021/10/22 09:35:48;;;;;;;5.15;1.35;;;9.00;92.60;;;;;;5030400;28;20037;-68
2021/10/22 09:38:24;;;;;;;13.95;1.67;;;9.10;92.20;;;;;;4979116;28;20045;-69
2021/10/22 09:40:56;;;;;;;6.95;1.45;;;9.00;92.10;;;;;;5000618;28;20028;-68
2021/10/22 09:43:35;;;;;;;9.50;1.37;;;9.00;92.10;;;;;;5009648;28;20026;-68
2021/10/22 09:46:29;;;;;;;12.07;1.75;;;8.90;92.00;;;;;;5003214;28;20070;-68
2021/10/22 09:48:57;;;;;;;7.97;1.58;;;8.90;92.00;;;;;;4991033;28;20069;-68
2021/10/22 09:51:35;;;;;;;8.52;1.75;;;8.90;91.90;;;;;;5010547;28;20033;-69
2021/10/22 09:54:11;;;;;;;6.00;1.45;;;8.90;91.80;;;;;;5009513;28;20088;-68
2021/10/22 09:56:39;;;;;;;4.38;1.42;;;8.90;91.70;;;;;;5014046;28;20551;-68
2021/10/22 09:59:07;;;;;;;7.88;1.58;;;8.90;91.80;;;;;;5009606;28;20382;-69
2021/10/22 10:01:38;;;;;;;6.68;1.50;;;8.80;91.80;;;;;;5000499;28;20445;-68
2021/10/22 10:04:09;;;;;;;5.72;1.80;;;8.90;91.80;;;;;;4993924;28;20462;-68
2021/10/22 10:06:35;;;;;;;9.52;1.40;;;8.80;91.70;;;;;;5011073;28;20382;-67
2021/10/22 10:09:04;;;;;;;5.35;1.45;;;8.80;91.60;;;;;;5017537;28;20080;-67
2021/10/22 10:11:30;;;;;;;9.02;1.75;;;8.80;91.40;;;;;;5010220;28;20054;-68
2021/10/22 10:14:00;;;;;;;3.22;1.30;;;8.90;91.50;;;;;;5009154;28;20113;-68
2021/10/22 10:16:27;;;;;;;7.40;1.23;;;8.90;91.50;;;;;;5008855;28;20040;-68
2021/10/22 10:19:05;;;;;;;5.50;1.35;;;8.90;91.30;;;;;;5007035;28;20701;-68
2021/10/22 10:21:53;;;;;;;9.23;1.40;;;9.00;91.20;;;;;;5011846;28;20080;-68
2021/10/22 10:24:28;;;;;;;6.72;1.30;;;9.00;90.90;;;;;;4995768;28;20030;-69
2021/10/22 10:27:02;;;;;;;7.65;1.25;;;9.00;90.90;;;;;;5013495;28;20494;-71
2021/10/22 10:29:34;;;;;;;6.00;1.45;;;9.00;90.80;;;;;;4985636;28;20061;-68
2021/10/22 10:32:09;;;;;;;10.25;1.35;;;9.10;91.00;;;;;;4991014;28;20029;-68
2021/10/22 10:34:36;;;;;;;4.45;1.35;;;9.20;90.80;;;;;;4984461;28;20470;-68
2021/10/22 10:37:04;;;;;;;8.80;2.00;;;9.20;90.70;;;;;;4994603;28;20057;-68
2021/10/22 10:39:42;;;;;;;5.80;1.27;;;9.20;90.40;;;;;;5005497;28;20164;-68
2021/10/22 10:42:28;;;;;;;4.10;1.45;;;9.20;90.20;;;;;;4988224;28;20530;-67
2021/10/22 10:45:18;;;;;;;8.82;1.40;;;9.30;90.30;;;;;;5001505;28;20029;-67
2021/10/22 10:47:49;;;;;;;5.25;1.20;;;9.30;90.30;;;;;;4991869;28;20033;-68
2021/10/22 10:50:18;;;;;;;5.97;1.30;;;9.40;90.30;;;;;;5012751;28;20081;-67
2021/10/22 10:52:46;;;;;;;8.13;1.25;;;9.40;90.20;;;;;;5007218;28;20030;-68
2021/10/22 10:55:35;;;;;;;6.00;1.20;;;9.50;90.00;;;;;;5013939;28;20108;-68
2021/10/22 10:58:09;;;;;;;8.88;1.38;;;9.50;89.90;;;;;;4984393;28;20545;-67
2021/10/22 11:00:52;;;;;;;8.15;1.42;;;9.50;89.90;;;;;;5012296;28;20039;-67
2021/10/22 11:03:46;;;;;;;5.65;0.93;;;9.60;89.40;;;;;;5012880;28;20359;-67
2021/10/22 11:06:14;;;;;;;6.03;1.10;;;9.60;89.30;;;;;;4998339;28;20117;-67
2021/10/22 11:08:42;;;;;;;4.55;1.30;;;9.70;89.60;;;;;;4999545;28;20037;-67
2021/10/22 11:11:16;;;;;;;6.45;1.20;;;9.80;89.30;;;;;;4994582;28;20028;-67
2021/10/22 11:13:42;;;;;;;4.85;1.13;;;9.90;88.50;;;;;;4994842;28;20030;-68
2021/10/22 11:17:06;;;;;;;6.22;1.00;;;10.00;88.60;;;;;;4993147;28;20029;-67
2021/10/22 11:19:33;;;;;;;8.18;1.48;;;10.10;87.70;;;;;;4990147;28;20392;-67
2021/10/22 11:22:04;;;;;;;7.55;1.20;;;10.30;87.20;;;;;;4999147;28;20034;-67
2021/10/22 11:24:31;;;;;;;9.10;3.75;;;10.50;87.40;;;;;;5007167;28;20033;-67
2021/10/22 11:27:06;;;;;;;4.18;1.67;;;10.60;86.70;;;;;;5009526;28;20024;-66
2021/10/22 11:29:34;;;;;;;2.78;1.00;;;10.90;86.70;;;;;;5012153;28;20394;-67
2021/10/22 11:32:09;;;;;;;5.70;1.10;;;11.10;86.30;;;;;;5011470;28;20026;-67
2021/10/22 11:34:37;;;;;;;1.80;0.85;;;11.20;85.00;;;;;;5006858;28;20498;-68
2021/10/22 11:37:13;;;;;;;4.45;1.02;;;11.40;84.10;;;;;;5013277;28;20153;-67
2021/10/22 11:39:42;;;;;;;6.22;1.20;;;11.50;83.00;;;;;;5006410;28;20108;-67
2021/10/22 11:42:16;;;;;;;6.45;1.52;;;11.50;82.50;;;;;;4996235;28;20243;-68
2021/10/22 11:44:59;;;;;;;7.47;1.02;;;11.60;81.20;;;;;;4979389;28;20152;-67
2021/10/22 11:47:39;;;;;;;6.38;1.20;;;11.70;80.70;;;;;;5005101;28;20057;-67
2021/10/22 11:50:26;;;;;;;6.68;1.10;;;11.90;80.70;;;;;;5007627;28;20030;-68
2021/10/22 11:53:12;;;;;;;3.42;1.15;;;12.00;79.50;;;;;;4993932;28;20030;-68
2021/10/22 11:55:42;;;;;;;5.35;1.13;;;12.20;80.30;;;;;;5007234;28;20032;-68
2021/10/22 11:58:11;;;;;;;5.80;1.23;;;12.30;80.70;;;;;;5007035;28;20088;-67
2021/10/22 12:00:47;;;;;;;5.15;1.50;;;12.60;79.80;;;;;;4998222;28;20034;-67
2021/10/22 12:03:13;;;;;;;6.57;1.20;;;12.60;78.60;;;;;;4993000;28;20418;-67
2021/10/22 12:05:41;;;;;;;2.63;1.02;;;12.70;78.10;;;;;;4993467;28;20033;-67
2021/10/22 12:08:07;;;;;;;5.28;1.27;;;12.70;78.50;;;;;;4995385;28;20049;-67
2021/10/22 12:10:37;;;;;;;6.50;1.20;;;12.90;78.40;;;;;;4975845;28;20496;-66
2021/10/22 12:13:03;;;;;;;5.45;1.10;;;13.00;78.50;;;;;;5002623;28;20054;-67
2021/10/22 12:15:31;;;;;;;5.80;0.93;;;13.00;77.20;;;;;;5012124;28;20064;-67
2021/10/22 12:18:02;;;;;;;3.95;1.10;;;13.00;76.70;;;;;;4988992;28;20034;-66
2021/10/22 12:20:29;;;;;;;2.78;1.10;;;13.10;76.60;;;;;;5007005;28;20044;-66
2021/10/22 12:22:59;;;;;;;3.45;0.98;;;13.20;76.80;;;;;;5009734;28;20030;-67
2021/10/22 12:25:27;;;;;;;4.40;1.13;;;13.30;76.30;;;;;;5010673;28;20422;-66
2021/10/22 12:27:55;;;;;;;5.07;1.10;;;13.50;76.50;;;;;;5005947;28;20015;-67
2021/10/22 12:30:26;;;;;;;4.90;1.10;;;13.60;75.30;;;;;;4998186;28;20080;-66
2021/10/22 12:32:54;;;;;;;5.95;1.30;;;13.60;75.50;;;;;;5009708;28;20029;-68
2021/10/22 12:35:30;;;;;;;4.38;1.27;;;13.60;75.20;;;;;;5015094;28;20136;-66
2021/10/22 12:37:56;;;;;;;3.40;0.90;;;13.70;74.00;;;;;;5018035;28;20052;-70
2021/10/22 12:40:23;;;;;;;2.00;1.08;;;13.70;75.00;;;;;;4993761;28;20549;-69
2021/10/22 12:43:19;;;;;;;3.85;1.25;;;13.80;75.10;;;;;;4983802;28;20026;-67
2021/10/22 12:45:51;;;;;;;5.35;1.17;;;13.90;73.90;;;;;;5008830;28;20371;-67
2021/10/22 12:48:23;;;;;;;3.65;1.25;;;14.00;74.60;;;;;;5011474;28;20045;-68
2021/10/22 12:50:48;;;;;;;7.80;1.38;;;14.00;74.40;;;;;;5011768;28;20030;-68
2021/10/22 12:53:19;;;;;;;5.57;1.02;;;14.00;73.70;;;;;;5010584;28;20026;-67
2021/10/22 12:55:59;;;;;;;6.72;1.13;;;14.00;73.70;;;;;;4994007;28;20030;-67
2021/10/22 12:58:25;;;;;;;4.65;1.40;;;13.90;74.10;;;;;;5011165;28;20061;-66
2021/10/22 13:01:09;;;;;;;5.53;1.33;;;13.70;73.90;;;;;;5000305;28;20022;-67
2021/10/22 13:03:37;;;;;;;5.15;1.15;;;13.40;73.10;;;;;;5010643;28;20129;-66